sensor_id;sensor_type;location;lat;lon;timestamp;P1;durP1;ratioP1;P2;durP2;ratioP2
59978;SDS011;45839;44.882;20.650;2022-12-07T00:01:09;7.07;;;3.75;;
59978;SDS011;45839;44.882;20.650;2022-12-07T00:03:36;6.60;;;3.70;;
59978;SDS011;45839;44.882;20.650;2022-12-07T00:06:02;6.95;;;4.03;;
59978;SDS011;45839;44.882;20.650;2022-12-07T00:08:29;7.45;;;3.63;;
59978;SDS011;45839;44.882;20.650;2022-12-07T00:10:59;6.50;;;3.67;;
59978;SDS011;45839;44.882;20.650;2022-12-07T00:13:26;7.40;;;3.70;;
59978;SDS011;45839;44.882;20.650;2022-12-07T00:15:52;7.50;;;3.85;;
59978;SDS011;45839;44.882;20.650;2022-12-07T00:18:18;8.48;;;4.95;;
59978;SDS011;45839;44.882;20.650;2022-12-07T00:20:44;7.80;;;4.50;;
59978;SDS011;45839;44.882;20.650;2022-12-07T00:23:10;8.75;;;5.00;;
59978;SDS011;45839;44.882;20.650;2022-12-07T00:25:36;8.23;;;4.55;;
59978;SDS011;45839;44.882;20.650;2022-12-07T00:28:02;8.88;;;5.10;;
59978;SDS011;45839;44.882;20.650;2022-12-07T00:30:28;11.45;;;6.03;;
59978;SDS011;45839;44.882;20.650;2022-12-07T00:32:54;13.05;;;6.90;;
59978;SDS011;45839;44.882;20.650;2022-12-07T00:35:20;13.93;;;8.02;;
59978;SDS011;45839;44.882;20.650;2022-12-07T00:37:46;14.13;;;7.45;;
59978;SDS011;45839;44.882;20.650;2022-12-07T00:40:12;9.15;;;5.60;;
59978;SDS011;45839;44.882;20.650;2022-12-07T00:42:38;8.95;;;5.10;;
59978;SDS011;45839;44.882;20.650;2022-12-07T00:45:04;8.88;;;4.10;;
59978;SDS011;45839;44.882;20.650;2022-12-07T00:47:30;8.23;;;4.72;;
59978;SDS011;45839;44.882;20.650;2022-12-07T00:49:56;12.18;;;5.18;;
59978;SDS011;45839;44.882;20.650;2022-12-07T00:52:22;9.27;;;5.60;;
59978;SDS011;45839;44.882;20.650;2022-12-07T00:54:48;9.15;;;5.47;;
59978;SDS011;45839;44.882;20.650;2022-12-07T00:57:14;8.32;;;4.60;;
59978;SDS011;45839;44.882;20.650;2022-12-07T00:59:40;7.13;;;3.83;;
59978;SDS011;45839;44.882;20.650;2022-12-07T01:02:06;6.28;;;3.60;;
59978;SDS011;45839;44.882;20.650;2022-12-07T01:04:33;6.07;;;3.22;;
59978;SDS011;45839;44.882;20.650;2022-12-07T01:06:59;7.10;;;3.60;;
59978;SDS011;45839;44.882;20.650;2022-12-07T01:09:25;5.78;;;3.30;;
59978;SDS011;45839;44.882;20.650;2022-12-07T01:11:51;6.22;;;3.30;;
59978;SDS011;45839;44.882;20.650;2022-12-07T01:14:17;5.90;;;3.05;;
59978;SDS011;45839;44.882;20.650;2022-12-07T01:16:43;6.22;;;3.03;;
59978;SDS011;45839;44.882;20.650;2022-12-07T01:19:10;6.47;;;3.45;;
59978;SDS011;45839;44.882;20.650;2022-12-07T01:21:36;7.55;;;3.83;;
59978;SDS011;45839;44.882;20.650;2022-12-07T01:24:03;6.10;;;3.03;;
59978;SDS011;45839;44.882;20.650;2022-12-07T01:26:29;6.53;;;3.25;;
59978;SDS011;45839;44.882;20.650;2022-12-07T01:28:56;7.13;;;2.80;;
59978;SDS011;45839;44.882;20.650;2022-12-07T01:31:24;6.63;;;2.83;;
59978;SDS011;45839;44.882;20.650;2022-12-07T01:33:54;5.80;;;2.88;;
59978;SDS011;45839;44.882;20.650;2022-12-07T01:36:25;6.18;;;2.95;;
59978;SDS011;45839;44.882;20.650;2022-12-07T01:38:53;4.68;;;2.25;;
59978;SDS011;45839;44.882;20.650;2022-12-07T01:41:21;5.28;;;2.28;;
59978;SDS011;45839;44.882;20.650;2022-12-07T01:46:32;5.13;;;2.13;;
59978;SDS011;45839;44.882;20.650;2022-12-07T01:48:58;4.90;;;2.20;;
59978;SDS011;45839;44.882;20.650;2022-12-07T01:51:25;3.97;;;1.90;;
59978;SDS011;45839;44.882;20.650;2022-12-07T01:53:52;4.53;;;2.20;;
59978;SDS011;45839;44.882;20.650;2022-12-07T01:56:18;4.70;;;2.33;;
59978;SDS011;45839;44.882;20.650;2022-12-07T01:58:47;4.18;;;2.22;;
59978;SDS011;45839;44.882;20.650;2022-12-07T02:01:13;5.40;;;2.50;;
59978;SDS011;45839;44.882;20.650;2022-12-07T02:03:41;5.40;;;2.33;;
59978;SDS011;45839;44.882;20.650;2022-12-07T02:06:07;5.65;;;2.50;;
59978;SDS011;45839;44.882;20.650;2022-12-07T02:08:33;5.38;;;2.50;;
59978;SDS011;45839;44.882;20.650;2022-12-07T02:11:00;4.15;;;2.03;;
59978;SDS011;45839;44.882;20.650;2022-12-07T02:13:27;5.20;;;2.80;;
59978;SDS011;45839;44.882;20.650;2022-12-07T02:16:04;4.90;;;2.67;;
59978;SDS011;45839;44.882;20.650;2022-12-07T02:26:38;5.90;;;2.88;;
59978;SDS011;45839;44.882;20.650;2022-12-07T02:31:39;6.25;;;3.03;;
59978;SDS011;45839;44.882;20.650;2022-12-07T02:34:09;5.95;;;3.30;;
59978;SDS011;45839;44.882;20.650;2022-12-07T02:36:43;6.88;;;3.63;;
59978;SDS011;45839;44.882;20.650;2022-12-07T02:41:39;6.32;;;3.10;;
59978;SDS011;45839;44.882;20.650;2022-12-07T02:44:07;6.25;;;3.03;;
59978;SDS011;45839;44.882;20.650;2022-12-07T02:46:35;6.57;;;3.13;;
59978;SDS011;45839;44.882;20.650;2022-12-07T02:49:02;6.30;;;3.22;;
59978;SDS011;45839;44.882;20.650;2022-12-07T02:51:29;6.75;;;3.72;;
59978;SDS011;45839;44.882;20.650;2022-12-07T02:53:56;7.03;;;3.50;;
59978;SDS011;45839;44.882;20.650;2022-12-07T03:14:36;6.53;;;3.15;;
59978;SDS011;45839;44.882;20.650;2022-12-07T03:17:09;6.00;;;3.42;;
59978;SDS011;45839;44.882;20.650;2022-12-07T03:19:38;5.93;;;3.40;;
59978;SDS011;45839;44.882;20.650;2022-12-07T03:22:07;7.20;;;3.83;;
59978;SDS011;45839;44.882;20.650;2022-12-07T03:24:50;7.07;;;4.13;;
59978;SDS011;45839;44.882;20.650;2022-12-07T03:27:25;7.07;;;3.85;;
59978;SDS011;45839;44.882;20.650;2022-12-07T03:34:52;7.35;;;4.15;;
59978;SDS011;45839;44.882;20.650;2022-12-07T03:37:23;8.05;;;4.93;;
59978;SDS011;45839;44.882;20.650;2022-12-07T03:42:33;8.23;;;4.70;;
59978;SDS011;45839;44.882;20.650;2022-12-07T03:45:00;8.93;;;4.70;;
59978;SDS011;45839;44.882;20.650;2022-12-07T03:47:29;8.40;;;4.80;;
59978;SDS011;45839;44.882;20.650;2022-12-07T03:49:59;7.70;;;4.65;;
59978;SDS011;45839;44.882;20.650;2022-12-07T03:57:22;9.02;;;5.35;;
59978;SDS011;45839;44.882;20.650;2022-12-07T03:59:49;9.23;;;5.75;;
59978;SDS011;45839;44.882;20.650;2022-12-07T04:02:16;9.30;;;5.97;;
59978;SDS011;45839;44.882;20.650;2022-12-07T04:04:43;11.77;;;6.50;;
59978;SDS011;45839;44.882;20.650;2022-12-07T04:07:09;10.68;;;6.78;;
59978;SDS011;45839;44.882;20.650;2022-12-07T04:09:35;12.82;;;6.90;;
59978;SDS011;45839;44.882;20.650;2022-12-07T04:12:04;12.50;;;7.63;;
59978;SDS011;45839;44.882;20.650;2022-12-07T04:14:30;13.57;;;7.68;;
59978;SDS011;45839;44.882;20.650;2022-12-07T04:16:57;15.05;;;7.80;;
59978;SDS011;45839;44.882;20.650;2022-12-07T04:19:24;14.13;;;9.20;;
59978;SDS011;45839;44.882;20.650;2022-12-07T04:21:51;14.65;;;8.23;;
59978;SDS011;45839;44.882;20.650;2022-12-07T04:24:17;14.77;;;8.05;;
59978;SDS011;45839;44.882;20.650;2022-12-07T04:26:45;16.50;;;8.38;;
59978;SDS011;45839;44.882;20.650;2022-12-07T04:29:11;14.32;;;8.32;;
59978;SDS011;45839;44.882;20.650;2022-12-07T04:31:37;12.98;;;7.90;;
59978;SDS011;45839;44.882;20.650;2022-12-07T04:34:03;11.32;;;7.43;;
59978;SDS011;45839;44.882;20.650;2022-12-07T04:36:30;11.95;;;6.80;;
59978;SDS011;45839;44.882;20.650;2022-12-07T04:38:56;10.80;;;6.38;;
59978;SDS011;45839;44.882;20.650;2022-12-07T04:41:23;11.73;;;7.25;;
59978;SDS011;45839;44.882;20.650;2022-12-07T04:44:10;12.27;;;6.50;;
59978;SDS011;45839;44.882;20.650;2022-12-07T04:46:39;10.23;;;6.35;;
59978;SDS011;45839;44.882;20.650;2022-12-07T04:49:05;11.85;;;7.90;;
59978;SDS011;45839;44.882;20.650;2022-12-07T04:51:31;12.35;;;8.35;;
59978;SDS011;45839;44.882;20.650;2022-12-07T04:53:57;10.23;;;7.15;;
59978;SDS011;45839;44.882;20.650;2022-12-07T04:56:23;11.40;;;6.70;;
59978;SDS011;45839;44.882;20.650;2022-12-07T04:58:50;10.27;;;6.60;;
59978;SDS011;45839;44.882;20.650;2022-12-07T05:01:17;10.93;;;6.15;;
59978;SDS011;45839;44.882;20.650;2022-12-07T05:03:43;10.77;;;6.95;;
59978;SDS011;45839;44.882;20.650;2022-12-07T05:06:09;11.60;;;7.68;;
59978;SDS011;45839;44.882;20.650;2022-12-07T05:08:35;11.25;;;7.15;;
59978;SDS011;45839;44.882;20.650;2022-12-07T05:11:02;10.73;;;6.95;;
59978;SDS011;45839;44.882;20.650;2022-12-07T05:13:28;12.27;;;7.97;;
59978;SDS011;45839;44.882;20.650;2022-12-07T05:15:54;14.23;;;9.30;;
59978;SDS011;45839;44.882;20.650;2022-12-07T05:18:20;13.50;;;8.65;;
59978;SDS011;45839;44.882;20.650;2022-12-07T05:20:46;12.80;;;8.55;;
59978;SDS011;45839;44.882;20.650;2022-12-07T05:23:12;11.73;;;7.68;;
59978;SDS011;45839;44.882;20.650;2022-12-07T05:25:39;11.77;;;7.97;;
59978;SDS011;45839;44.882;20.650;2022-12-07T05:28:05;12.15;;;8.70;;
59978;SDS011;45839;44.882;20.650;2022-12-07T05:30:31;12.23;;;7.93;;
59978;SDS011;45839;44.882;20.650;2022-12-07T05:32:58;11.75;;;7.88;;
59978;SDS011;45839;44.882;20.650;2022-12-07T05:35:24;11.98;;;7.30;;
59978;SDS011;45839;44.882;20.650;2022-12-07T05:37:50;10.77;;;7.03;;
59978;SDS011;45839;44.882;20.650;2022-12-07T05:40:16;12.00;;;7.03;;
59978;SDS011;45839;44.882;20.650;2022-12-07T05:42:44;10.00;;;6.70;;
59978;SDS011;45839;44.882;20.650;2022-12-07T05:45:10;10.18;;;6.75;;
59978;SDS011;45839;44.882;20.650;2022-12-07T05:47:36;10.05;;;7.00;;
59978;SDS011;45839;44.882;20.650;2022-12-07T05:50:03;13.63;;;9.10;;
59978;SDS011;45839;44.882;20.650;2022-12-07T05:52:30;13.63;;;9.30;;
59978;SDS011;45839;44.882;20.650;2022-12-07T05:54:56;17.55;;;10.57;;
59978;SDS011;45839;44.882;20.650;2022-12-07T05:57:22;16.00;;;10.80;;
59978;SDS011;45839;44.882;20.650;2022-12-07T05:59:48;13.65;;;8.63;;
59978;SDS011;45839;44.882;20.650;2022-12-07T06:02:14;10.55;;;7.07;;
59978;SDS011;45839;44.882;20.650;2022-12-07T06:04:42;12.48;;;7.60;;
59978;SDS011;45839;44.882;20.650;2022-12-07T06:07:09;10.25;;;6.72;;
59978;SDS011;45839;44.882;20.650;2022-12-07T06:09:35;10.32;;;7.10;;
59978;SDS011;45839;44.882;20.650;2022-12-07T06:12:02;13.30;;;8.48;;
59978;SDS011;45839;44.882;20.650;2022-12-07T06:14:47;12.77;;;7.85;;
59978;SDS011;45839;44.882;20.650;2022-12-07T06:17:13;11.82;;;7.38;;
59978;SDS011;45839;44.882;20.650;2022-12-07T06:19:39;15.80;;;10.05;;
59978;SDS011;45839;44.882;20.650;2022-12-07T06:22:05;19.42;;;12.60;;
59978;SDS011;45839;44.882;20.650;2022-12-07T06:24:32;19.60;;;13.60;;
59978;SDS011;45839;44.882;20.650;2022-12-07T06:26:58;18.05;;;13.57;;
59978;SDS011;45839;44.882;20.650;2022-12-07T06:29:24;14.98;;;10.43;;
59978;SDS011;45839;44.882;20.650;2022-12-07T06:31:53;13.32;;;8.25;;
59978;SDS011;45839;44.882;20.650;2022-12-07T06:34:20;12.27;;;7.55;;
59978;SDS011;45839;44.882;20.650;2022-12-07T06:36:47;11.90;;;7.20;;
59978;SDS011;45839;44.882;20.650;2022-12-07T06:39:17;10.35;;;6.80;;
59978;SDS011;45839;44.882;20.650;2022-12-07T06:41:43;12.07;;;8.13;;
59978;SDS011;45839;44.882;20.650;2022-12-07T06:44:09;13.88;;;9.80;;
59978;SDS011;45839;44.882;20.650;2022-12-07T06:46:35;11.70;;;7.90;;
59978;SDS011;45839;44.882;20.650;2022-12-07T06:49:02;11.02;;;7.40;;
59978;SDS011;45839;44.882;20.650;2022-12-07T06:51:29;10.73;;;7.95;;
59978;SDS011;45839;44.882;20.650;2022-12-07T06:53:55;11.80;;;7.88;;
59978;SDS011;45839;44.882;20.650;2022-12-07T06:56:21;13.90;;;9.32;;
59978;SDS011;45839;44.882;20.650;2022-12-07T06:58:47;16.27;;;11.10;;
59978;SDS011;45839;44.882;20.650;2022-12-07T07:01:14;16.58;;;11.93;;
59978;SDS011;45839;44.882;20.650;2022-12-07T07:03:40;13.93;;;10.35;;
59978;SDS011;45839;44.882;20.650;2022-12-07T07:06:07;13.85;;;9.75;;
59978;SDS011;45839;44.882;20.650;2022-12-07T07:08:34;13.35;;;9.07;;
59978;SDS011;45839;44.882;20.650;2022-12-07T07:11:00;14.07;;;8.75;;
59978;SDS011;45839;44.882;20.650;2022-12-07T07:13:26;13.02;;;7.65;;
59978;SDS011;45839;44.882;20.650;2022-12-07T07:15:52;10.60;;;7.25;;
59978;SDS011;45839;44.882;20.650;2022-12-07T07:18:19;11.90;;;7.45;;
59978;SDS011;45839;44.882;20.650;2022-12-07T07:20:45;11.70;;;7.95;;
59978;SDS011;45839;44.882;20.650;2022-12-07T07:23:11;10.88;;;7.32;;
59978;SDS011;45839;44.882;20.650;2022-12-07T07:25:37;10.90;;;6.80;;
59978;SDS011;45839;44.882;20.650;2022-12-07T07:28:03;10.73;;;7.30;;
59978;SDS011;45839;44.882;20.650;2022-12-07T07:30:30;10.63;;;7.43;;
59978;SDS011;45839;44.882;20.650;2022-12-07T07:32:56;9.98;;;6.82;;
59978;SDS011;45839;44.882;20.650;2022-12-07T07:35:23;11.30;;;7.35;;
59978;SDS011;45839;44.882;20.650;2022-12-07T07:37:49;10.57;;;7.28;;
59978;SDS011;45839;44.882;20.650;2022-12-07T07:40:16;12.18;;;7.60;;
59978;SDS011;45839;44.882;20.650;2022-12-07T07:42:42;10.80;;;7.28;;
59978;SDS011;45839;44.882;20.650;2022-12-07T07:45:08;11.82;;;8.70;;
59978;SDS011;45839;44.882;20.650;2022-12-07T07:47:34;14.20;;;9.73;;
59978;SDS011;45839;44.882;20.650;2022-12-07T07:50:00;13.57;;;9.38;;
59978;SDS011;45839;44.882;20.650;2022-12-07T07:52:26;12.35;;;8.00;;
59978;SDS011;45839;44.882;20.650;2022-12-07T07:54:52;11.00;;;6.95;;
59978;SDS011;45839;44.882;20.650;2022-12-07T07:57:18;10.20;;;7.00;;
59978;SDS011;45839;44.882;20.650;2022-12-07T07:59:44;10.27;;;6.80;;
59978;SDS011;45839;44.882;20.650;2022-12-07T08:02:14;14.05;;;8.57;;
59978;SDS011;45839;44.882;20.650;2022-12-07T08:04:40;13.15;;;8.93;;
59978;SDS011;45839;44.882;20.650;2022-12-07T08:07:07;16.70;;;11.82;;
59978;SDS011;45839;44.882;20.650;2022-12-07T08:09:33;19.38;;;13.40;;
59978;SDS011;45839;44.882;20.650;2022-12-07T08:11:59;13.68;;;10.02;;
59978;SDS011;45839;44.882;20.650;2022-12-07T08:14:25;12.43;;;8.82;;
59978;SDS011;45839;44.882;20.650;2022-12-07T08:16:52;12.38;;;8.60;;
59978;SDS011;45839;44.882;20.650;2022-12-07T08:19:18;11.50;;;8.05;;
59978;SDS011;45839;44.882;20.650;2022-12-07T08:21:44;11.15;;;7.47;;
59978;SDS011;45839;44.882;20.650;2022-12-07T08:24:10;11.02;;;7.22;;
59978;SDS011;45839;44.882;20.650;2022-12-07T08:26:37;16.50;;;12.02;;
59978;SDS011;45839;44.882;20.650;2022-12-07T08:29:03;16.60;;;12.65;;
59978;SDS011;45839;44.882;20.650;2022-12-07T08:31:29;15.55;;;11.45;;
59978;SDS011;45839;44.882;20.650;2022-12-07T08:33:55;13.05;;;9.32;;
59978;SDS011;45839;44.882;20.650;2022-12-07T08:36:22;12.75;;;7.40;;
59978;SDS011;45839;44.882;20.650;2022-12-07T08:38:48;12.63;;;8.70;;
59978;SDS011;45839;44.882;20.650;2022-12-07T08:41:14;11.30;;;8.23;;
59978;SDS011;45839;44.882;20.650;2022-12-07T08:43:41;10.82;;;7.35;;
59978;SDS011;45839;44.882;20.650;2022-12-07T08:46:15;10.60;;;6.80;;
59978;SDS011;45839;44.882;20.650;2022-12-07T08:48:47;10.68;;;6.22;;
59978;SDS011;45839;44.882;20.650;2022-12-07T08:51:14;11.45;;;7.25;;
59978;SDS011;45839;44.882;20.650;2022-12-07T08:53:40;15.20;;;10.90;;
59978;SDS011;45839;44.882;20.650;2022-12-07T08:56:07;17.70;;;13.50;;
59978;SDS011;45839;44.882;20.650;2022-12-07T08:58:34;16.23;;;9.60;;
59978;SDS011;45839;44.882;20.650;2022-12-07T09:01:01;13.80;;;9.43;;
59978;SDS011;45839;44.882;20.650;2022-12-07T09:03:27;10.52;;;7.15;;
59978;SDS011;45839;44.882;20.650;2022-12-07T09:05:53;9.82;;;6.25;;
59978;SDS011;45839;44.882;20.650;2022-12-07T09:08:19;12.95;;;9.27;;
59978;SDS011;45839;44.882;20.650;2022-12-07T09:10:46;18.85;;;14.73;;
59978;SDS011;45839;44.882;20.650;2022-12-07T09:13:13;19.38;;;15.13;;
59978;SDS011;45839;44.882;20.650;2022-12-07T09:15:40;13.13;;;9.30;;
59978;SDS011;45839;44.882;20.650;2022-12-07T09:18:06;9.60;;;6.45;;
59978;SDS011;45839;44.882;20.650;2022-12-07T09:20:32;9.15;;;5.85;;
59978;SDS011;45839;44.882;20.650;2022-12-07T09:22:59;8.93;;;5.25;;
59978;SDS011;45839;44.882;20.650;2022-12-07T09:25:25;7.93;;;4.95;;
59978;SDS011;45839;44.882;20.650;2022-12-07T09:27:55;8.20;;;5.07;;
59978;SDS011;45839;44.882;20.650;2022-12-07T09:30:22;9.15;;;5.40;;
59978;SDS011;45839;44.882;20.650;2022-12-07T09:32:48;7.32;;;4.72;;
59978;SDS011;45839;44.882;20.650;2022-12-07T09:35:14;7.88;;;4.72;;
59978;SDS011;45839;44.882;20.650;2022-12-07T09:37:40;7.13;;;4.55;;
59978;SDS011;45839;44.882;20.650;2022-12-07T09:40:06;17.83;;;12.98;;
59978;SDS011;45839;44.882;20.650;2022-12-07T09:42:37;16.55;;;11.98;;
59978;SDS011;45839;44.882;20.650;2022-12-07T09:45:11;14.73;;;10.77;;
59978;SDS011;45839;44.882;20.650;2022-12-07T09:47:40;13.93;;;9.85;;
59978;SDS011;45839;44.882;20.650;2022-12-07T09:50:11;15.80;;;9.15;;
59978;SDS011;45839;44.882;20.650;2022-12-07T09:52:38;14.50;;;9.23;;
59978;SDS011;45839;44.882;20.650;2022-12-07T09:55:08;13.93;;;9.20;;
59978;SDS011;45839;44.882;20.650;2022-12-07T09:57:35;12.55;;;8.77;;
59978;SDS011;45839;44.882;20.650;2022-12-07T10:00:03;12.68;;;8.77;;
59978;SDS011;45839;44.882;20.650;2022-12-07T10:05:38;17.50;;;11.60;;
59978;SDS011;45839;44.882;20.650;2022-12-07T10:08:07;14.00;;;10.48;;
59978;SDS011;45839;44.882;20.650;2022-12-07T10:10:34;15.90;;;11.48;;
59978;SDS011;45839;44.882;20.650;2022-12-07T10:18:18;19.38;;;13.60;;
59978;SDS011;45839;44.882;20.650;2022-12-07T10:20:45;15.75;;;11.77;;
59978;SDS011;45839;44.882;20.650;2022-12-07T10:23:15;17.70;;;12.40;;
59978;SDS011;45839;44.882;20.650;2022-12-07T10:25:42;18.20;;;12.80;;
59978;SDS011;45839;44.882;20.650;2022-12-07T10:28:14;15.73;;;11.25;;
59978;SDS011;45839;44.882;20.650;2022-12-07T10:33:32;15.40;;;10.60;;
59978;SDS011;45839;44.882;20.650;2022-12-07T10:36:01;14.70;;;11.18;;
59978;SDS011;45839;44.882;20.650;2022-12-07T10:38:34;15.60;;;11.68;;
59978;SDS011;45839;44.882;20.650;2022-12-07T10:41:10;15.70;;;10.75;;
59978;SDS011;45839;44.882;20.650;2022-12-07T10:43:36;16.10;;;10.65;;
59978;SDS011;45839;44.882;20.650;2022-12-07T10:48:53;15.95;;;11.23;;
59978;SDS011;45839;44.882;20.650;2022-12-07T10:54:03;19.13;;;12.77;;
59978;SDS011;45839;44.882;20.650;2022-12-07T11:01:47;21.10;;;16.67;;
59978;SDS011;45839;44.882;20.650;2022-12-07T11:09:55;24.65;;;16.45;;
59978;SDS011;45839;44.882;20.650;2022-12-07T11:22:49;21.88;;;15.85;;
59978;SDS011;45839;44.882;20.650;2022-12-07T11:28:17;19.90;;;14.23;;
59978;SDS011;45839;44.882;20.650;2022-12-07T11:30:57;19.92;;;13.10;;
59978;SDS011;45839;44.882;20.650;2022-12-07T11:33:49;19.85;;;12.80;;
59978;SDS011;45839;44.882;20.650;2022-12-07T11:38:52;14.68;;;9.90;;
59978;SDS011;45839;44.882;20.650;2022-12-07T11:41:22;14.45;;;9.27;;
59978;SDS011;45839;44.882;20.650;2022-12-07T11:49:12;12.27;;;8.48;;
59978;SDS011;45839;44.882;20.650;2022-12-07T11:51:40;10.68;;;7.68;;
59978;SDS011;45839;44.882;20.650;2022-12-07T11:54:12;12.10;;;8.02;;
59978;SDS011;45839;44.882;20.650;2022-12-07T11:56:40;10.43;;;7.28;;
59978;SDS011;45839;44.882;20.650;2022-12-07T12:01:47;11.68;;;7.10;;
59978;SDS011;45839;44.882;20.650;2022-12-07T12:06:51;11.57;;;8.10;;
59978;SDS011;45839;44.882;20.650;2022-12-07T12:09:29;15.05;;;11.15;;
59978;SDS011;45839;44.882;20.650;2022-12-07T12:14:48;13.80;;;9.27;;
59978;SDS011;45839;44.882;20.650;2022-12-07T12:20:05;17.27;;;11.95;;
59978;SDS011;45839;44.882;20.650;2022-12-07T12:22:42;14.30;;;10.05;;
59978;SDS011;45839;44.882;20.650;2022-12-07T12:27:38;17.10;;;12.70;;
59978;SDS011;45839;44.882;20.650;2022-12-07T12:30:29;19.50;;;14.15;;
59978;SDS011;45839;44.882;20.650;2022-12-07T12:32:51;21.05;;;14.82;;
59978;SDS011;45839;44.882;20.650;2022-12-07T12:37:52;24.40;;;17.27;;
59978;SDS011;45839;44.882;20.650;2022-12-07T12:42:48;20.33;;;15.75;;
59978;SDS011;45839;44.882;20.650;2022-12-07T12:45:22;17.63;;;13.68;;
59978;SDS011;45839;44.882;20.650;2022-12-07T12:52:54;14.20;;;10.05;;
59978;SDS011;45839;44.882;20.650;2022-12-07T12:56:11;14.10;;;9.95;;
59978;SDS011;45839;44.882;20.650;2022-12-07T13:00:46;14.13;;;10.05;;
59978;SDS011;45839;44.882;20.650;2022-12-07T13:03:28;13.77;;;10.82;;
59978;SDS011;45839;44.882;20.650;2022-12-07T13:08:53;15.63;;;11.45;;
59978;SDS011;45839;44.882;20.650;2022-12-07T13:11:25;16.35;;;11.63;;
59978;SDS011;45839;44.882;20.650;2022-12-07T13:13:57;15.30;;;11.48;;
59978;SDS011;45839;44.882;20.650;2022-12-07T13:16:39;18.25;;;12.77;;
59978;SDS011;45839;44.882;20.650;2022-12-07T13:19:27;13.55;;;9.02;;
59978;SDS011;45839;44.882;20.650;2022-12-07T13:21:52;13.55;;;8.77;;
59978;SDS011;45839;44.882;20.650;2022-12-07T13:24:18;13.35;;;9.48;;
59978;SDS011;45839;44.882;20.650;2022-12-07T13:26:44;12.82;;;9.32;;
59978;SDS011;45839;44.882;20.650;2022-12-07T13:29:14;14.10;;;9.95;;
59978;SDS011;45839;44.882;20.650;2022-12-07T13:37:00;16.73;;;11.73;;
59978;SDS011;45839;44.882;20.650;2022-12-07T13:39:26;16.30;;;12.13;;
59978;SDS011;45839;44.882;20.650;2022-12-07T13:41:53;14.80;;;10.90;;
59978;SDS011;45839;44.882;20.650;2022-12-07T13:44:21;17.77;;;13.57;;
59978;SDS011;45839;44.882;20.650;2022-12-07T13:46:52;21.25;;;15.10;;
59978;SDS011;45839;44.882;20.650;2022-12-07T13:49:20;19.17;;;13.48;;
59978;SDS011;45839;44.882;20.650;2022-12-07T13:51:46;18.77;;;12.40;;
59978;SDS011;45839;44.882;20.650;2022-12-07T13:54:13;18.50;;;12.57;;
59978;SDS011;45839;44.882;20.650;2022-12-07T13:56:39;16.88;;;11.88;;
59978;SDS011;45839;44.882;20.650;2022-12-07T13:59:16;15.85;;;11.35;;
59978;SDS011;45839;44.882;20.650;2022-12-07T14:01:44;15.70;;;10.40;;
59978;SDS011;45839;44.882;20.650;2022-12-07T14:04:16;14.05;;;9.60;;
59978;SDS011;45839;44.882;20.650;2022-12-07T14:06:51;11.80;;;8.07;;
59978;SDS011;45839;44.882;20.650;2022-12-07T14:11:44;12.15;;;6.95;;
59978;SDS011;45839;44.882;20.650;2022-12-07T14:14:11;11.32;;;6.60;;
59978;SDS011;45839;44.882;20.650;2022-12-07T14:16:39;11.65;;;7.40;;
59978;SDS011;45839;44.882;20.650;2022-12-07T14:19:39;8.77;;;5.78;;
59978;SDS011;45839;44.882;20.650;2022-12-07T14:22:37;10.15;;;6.55;;
59978;SDS011;45839;44.882;20.650;2022-12-07T14:24:42;9.98;;;5.90;;
59978;SDS011;45839;44.882;20.650;2022-12-07T14:27:21;11.43;;;7.55;;
59978;SDS011;45839;44.882;20.650;2022-12-07T14:29:47;9.95;;;6.75;;
59978;SDS011;45839;44.882;20.650;2022-12-07T14:34:52;11.63;;;8.23;;
59978;SDS011;45839;44.882;20.650;2022-12-07T14:37:18;11.05;;;7.30;;
59978;SDS011;45839;44.882;20.650;2022-12-07T14:39:44;11.88;;;7.55;;
59978;SDS011;45839;44.882;20.650;2022-12-07T14:42:10;11.27;;;7.10;;
59978;SDS011;45839;44.882;20.650;2022-12-07T14:44:36;10.00;;;6.32;;
59978;SDS011;45839;44.882;20.650;2022-12-07T14:47:02;9.25;;;6.13;;
59978;SDS011;45839;44.882;20.650;2022-12-07T14:49:28;8.30;;;5.68;;
59978;SDS011;45839;44.882;20.650;2022-12-07T14:51:54;8.48;;;5.90;;
59978;SDS011;45839;44.882;20.650;2022-12-07T14:54:20;8.63;;;5.80;;
59978;SDS011;45839;44.882;20.650;2022-12-07T14:56:48;9.90;;;5.85;;
59978;SDS011;45839;44.882;20.650;2022-12-07T14:59:15;8.38;;;5.65;;
59978;SDS011;45839;44.882;20.650;2022-12-07T15:01:41;8.77;;;5.50;;
59978;SDS011;45839;44.882;20.650;2022-12-07T15:04:07;8.88;;;5.65;;
59978;SDS011;45839;44.882;20.650;2022-12-07T15:06:33;10.48;;;6.03;;
59978;SDS011;45839;44.882;20.650;2022-12-07T15:08:59;8.75;;;5.80;;
59978;SDS011;45839;44.882;20.650;2022-12-07T15:11:25;9.48;;;5.47;;
59978;SDS011;45839;44.882;20.650;2022-12-07T15:13:51;7.75;;;5.20;;
59978;SDS011;45839;44.882;20.650;2022-12-07T15:16:33;7.90;;;5.18;;
59978;SDS011;45839;44.882;20.650;2022-12-07T15:18:59;8.98;;;5.55;;
59978;SDS011;45839;44.882;20.650;2022-12-07T15:21:25;9.40;;;6.18;;
59978;SDS011;45839;44.882;20.650;2022-12-07T15:23:51;9.18;;;5.82;;
59978;SDS011;45839;44.882;20.650;2022-12-07T15:26:17;8.25;;;4.75;;
59978;SDS011;45839;44.882;20.650;2022-12-07T15:28:43;8.48;;;5.05;;
59978;SDS011;45839;44.882;20.650;2022-12-07T15:31:16;7.93;;;5.00;;
59978;SDS011;45839;44.882;20.650;2022-12-07T15:33:42;8.57;;;5.45;;
59978;SDS011;45839;44.882;20.650;2022-12-07T15:36:12;9.95;;;5.55;;
59978;SDS011;45839;44.882;20.650;2022-12-07T15:38:41;11.85;;;6.82;;
59978;SDS011;45839;44.882;20.650;2022-12-07T15:41:07;12.52;;;7.25;;
59978;SDS011;45839;44.882;20.650;2022-12-07T15:43:33;14.50;;;8.40;;
59978;SDS011;45839;44.882;20.650;2022-12-07T15:46:17;11.68;;;8.20;;
59978;SDS011;45839;44.882;20.650;2022-12-07T15:48:45;12.15;;;8.07;;
59978;SDS011;45839;44.882;20.650;2022-12-07T15:51:11;13.88;;;10.32;;
59978;SDS011;45839;44.882;20.650;2022-12-07T15:53:37;15.60;;;11.75;;
59978;SDS011;45839;44.882;20.650;2022-12-07T15:56:06;14.68;;;10.73;;
59978;SDS011;45839;44.882;20.650;2022-12-07T15:58:32;15.77;;;10.48;;
59978;SDS011;45839;44.882;20.650;2022-12-07T16:00:58;15.18;;;12.35;;
59978;SDS011;45839;44.882;20.650;2022-12-07T16:03:26;16.50;;;12.18;;
59978;SDS011;45839;44.882;20.650;2022-12-07T16:05:52;16.15;;;11.65;;
59978;SDS011;45839;44.882;20.650;2022-12-07T16:08:18;16.20;;;11.65;;
59978;SDS011;45839;44.882;20.650;2022-12-07T16:10:45;16.73;;;12.52;;
59978;SDS011;45839;44.882;20.650;2022-12-07T16:13:11;19.42;;;13.88;;
59978;SDS011;45839;44.882;20.650;2022-12-07T16:15:41;16.23;;;12.32;;
59978;SDS011;45839;44.882;20.650;2022-12-07T16:18:08;18.60;;;13.43;;
59978;SDS011;45839;44.882;20.650;2022-12-07T16:20:34;16.55;;;13.30;;
59978;SDS011;45839;44.882;20.650;2022-12-07T16:23:00;22.60;;;16.73;;
59978;SDS011;45839;44.882;20.650;2022-12-07T16:25:27;20.17;;;15.75;;
59978;SDS011;45839;44.882;20.650;2022-12-07T16:27:53;22.83;;;16.73;;
59978;SDS011;45839;44.882;20.650;2022-12-07T16:30:19;19.58;;;15.25;;
59978;SDS011;45839;44.882;20.650;2022-12-07T16:32:46;16.98;;;13.18;;
59978;SDS011;45839;44.882;20.650;2022-12-07T16:35:12;16.05;;;12.27;;
59978;SDS011;45839;44.882;20.650;2022-12-07T16:37:38;15.18;;;11.93;;
59978;SDS011;45839;44.882;20.650;2022-12-07T16:40:04;16.35;;;12.43;;